sensor_id;sensor_type;location;lat;lon;timestamp;temperature;humidity
1049;DHT22;513;51.444;7.196;2023-04-19T00:02:17;10.20;58.90
1049;DHT22;513;51.444;7.196;2023-04-19T00:04:44;10.20;86.50
1049;DHT22;513;51.444;7.196;2023-04-19T00:07:13;10.20;94.40
1049;DHT22;513;51.444;7.196;2023-04-19T00:09:39;10.30;99.30
1049;DHT22;513;51.444;7.196;2023-04-19T00:12:06;10.30;99.90
1049;DHT22;513;51.444;7.196;2023-04-19T00:14:32;10.30;99.90
1049;DHT22;513;51.444;7.196;2023-04-19T00:16:59;10.30;99.90
1049;DHT22;513;51.444;7.196;2023-04-19T00:19:25;10.30;99.90
1049;DHT22;513;51.444;7.196;2023-04-19T00:21:52;10.30;99.90
1049;DHT22;513;51.444;7.196;2023-04-19T00:24:20;10.30;99.90
1049;DHT22;513;51.444;7.196;2023-04-19T00:26:47;10.30;99.90
1049;DHT22;513;51.444;7.196;2023-04-19T00:29:13;10.30;99.90
1049;DHT22;513;51.444;7.196;2023-04-19T00:31:40;10.30;99.90
1049;DHT22;513;51.444;7.196;2023-04-19T00:34:06;10.30;99.90
1049;DHT22;513;51.444;7.196;2023-04-19T00:36:33;10.30;99.90
1049;DHT22;513;51.444;7.196;2023-04-19T00:39:00;10.30;99.90
1049;DHT22;513;51.444;7.196;2023-04-19T00:41:28;10.20;99.90
1049;DHT22;513;51.444;7.196;2023-04-19T00:43:55;10.20;99.90
1049;DHT22;513;51.444;7.196;2023-04-19T00:46:21;10.20;99.90
1049;DHT22;513;51.444;7.196;2023-04-19T00:48:48;10.20;99.90
1049;DHT22;513;51.444;7.196;2023-04-19T00:51:16;10.20;99.90
1049;DHT22;513;51.444;7.196;2023-04-19T00:53:42;10.20;99.90
1049;DHT22;513;51.444;7.196;2023-04-19T00:56:10;10.30;99.90
1049;DHT22;513;51.444;7.196;2023-04-19T00:58:40;10.20;99.90
1049;DHT22;513;51.444;7.196;2023-04-19T01:01:06;10.20;99.90
1049;DHT22;513;51.444;7.196;2023-04-19T01:03:33;10.20;99.90
1049;DHT22;513;51.444;7.196;2023-04-19T01:06:00;10.20;99.90
1049;DHT22;513;51.444;7.196;2023-04-19T01:08:27;10.20;99.90
1049;DHT22;513;51.444;7.196;2023-04-19T01:10:54;10.20;99.90
1049;DHT22;513;51.444;7.196;2023-04-19T01:13:20;10.10;99.90
1049;DHT22;513;51.444;7.196;2023-04-19T01:15:48;10.10;99.90
1049;DHT22;513;51.444;7.196;2023-04-19T01:18:15;10.00;99.90
1049;DHT22;513;51.444;7.196;2023-04-19T01:20:43;10.10;99.90
1049;DHT22;513;51.444;7.196;2023-04-19T01:23:11;10.10;99.90
1049;DHT22;513;51.444;7.196;2023-04-19T01:25:38;10.10;99.90
1049;DHT22;513;51.444;7.196;2023-04-19T01:28:04;10.10;99.90
1049;DHT22;513;51.444;7.196;2023-04-19T01:30:31;10.00;99.90
1049;DHT22;513;51.444;7.196;2023-04-19T01:32:58;10.00;99.90
1049;DHT22;513;51.444;7.196;2023-04-19T01:35:24;10.00;99.90
1049;DHT22;513;51.444;7.196;2023-04-19T01:37:52;10.10;99.90
1049;DHT22;513;51.444;7.196;2023-04-19T01:40:22;10.10;99.90
1049;DHT22;513;51.444;7.196;2023-04-19T01:42:49;10.10;99.90
1049;DHT22;513;51.444;7.196;2023-04-19T01:45:16;10.10;99.90
1049;DHT22;513;51.444;7.196;2023-04-19T01:47:43;10.20;99.90
1049;DHT22;513;51.444;7.196;2023-04-19T01:50:10;10.00;99.90
1049;DHT22;513;51.444;7.196;2023-04-19T01:52:36;10.10;99.90
1049;DHT22;513;51.444;7.196;2023-04-19T01:55:03;10.10;99.90
1049;DHT22;513;51.444;7.196;2023-04-19T01:57:31;10.10;99.90
1049;DHT22;513;51.444;7.196;2023-04-19T01:59:58;10.00;99.90
1049;DHT22;513;51.444;7.196;2023-04-19T02:02:25;10.00;99.90
1049;DHT22;513;51.444;7.196;2023-04-19T02:04:52;10.10;99.90
1049;DHT22;513;51.444;7.196;2023-04-19T02:07:18;10.10;99.90
1049;DHT22;513;51.444;7.196;2023-04-19T02:09:45;10.20;99.90
1049;DHT22;513;51.444;7.196;2023-04-19T02:12:11;10.20;99.90
1049;DHT22;513;51.444;7.196;2023-04-19T02:14:39;10.20;99.90
1049;DHT22;513;51.444;7.196;2023-04-19T02:17:06;10.20;97.00
1049;DHT22;513;51.444;7.196;2023-04-19T02:19:32;10.10;90.70
1049;DHT22;513;51.444;7.196;2023-04-19T02:21:59;10.10;89.50
1049;DHT22;513;51.444;7.196;2023-04-19T02:24:26;10.10;67.20
1049;DHT22;513;51.444;7.196;2023-04-19T02:26:52;10.20;63.40
1049;DHT22;513;51.444;7.196;2023-04-19T02:29:19;10.20;50.90
1049;DHT22;513;51.444;7.196;2023-04-19T02:31:47;10.20;50.00
1049;DHT22;513;51.444;7.196;2023-04-19T02:34:14;10.20;47.80
1049;DHT22;513;51.444;7.196;2023-04-19T02:36:41;10.20;42.10
1049;DHT22;513;51.444;7.196;2023-04-19T02:39:07;10.20;44.00
1049;DHT22;513;51.444;7.196;2023-04-19T02:41:34;10.20;39.50
1049;DHT22;513;51.444;7.196;2023-04-19T02:44:00;10.20;21.70
1049;DHT22;513;51.444;7.196;2023-04-19T02:46:27;10.20;16.20
1049;DHT22;513;51.444;7.196;2023-04-19T02:48:55;10.20;11.20
1049;DHT22;513;51.444;7.196;2023-04-19T02:51:22;10.10;12.50
1049;DHT22;513;51.444;7.196;2023-04-19T02:53:48;10.10;1.00
1049;DHT22;513;51.444;7.196;2023-04-19T02:56:15;10.10;1.00
1049;DHT22;513;51.444;7.196;2023-04-19T02:58:42;10.10;1.00
1049;DHT22;513;51.444;7.196;2023-04-19T03:01:08;10.00;1.00
1049;DHT22;513;51.444;7.196;2023-04-19T03:03:35;10.10;1.00
1049;DHT22;513;51.444;7.196;2023-04-19T03:06:03;10.10;1.00
1049;DHT22;513;51.444;7.196;2023-04-19T03:08:30;10.10;1.00
1049;DHT22;513;51.444;7.196;2023-04-19T03:10:57;10.10;1.00
1049;DHT22;513;51.444;7.196;2023-04-19T03:13:24;10.00;1.00
1049;DHT22;513;51.444;7.196;2023-04-19T03:15:50;10.00;1.00
1049;DHT22;513;51.444;7.196;2023-04-19T03:18:17;10.00;1.00
1049;DHT22;513;51.444;7.196;2023-04-19T03:20:43;10.00;1.00
1049;DHT22;513;51.444;7.196;2023-04-19T03:23:11;9.90;1.00
1049;DHT22;513;51.444;7.196;2023-04-19T03:25:38;10.00;1.00
1049;DHT22;513;51.444;7.196;2023-04-19T03:28:04;10.00;1.00
1049;DHT22;513;51.444;7.196;2023-04-19T03:30:31;9.90;1.00
1049;DHT22;513;51.444;7.196;2023-04-19T03:32:58;9.90;1.00
1049;DHT22;513;51.444;7.196;2023-04-19T03:35:25;9.90;1.00
1049;DHT22;513;51.444;7.196;2023-04-19T03:37:53;9.90;1.00
1049;DHT22;513;51.444;7.196;2023-04-19T03:40:21;9.80;1.00
1049;DHT22;513;51.444;7.196;2023-04-19T03:42:48;9.80;1.00
1049;DHT22;513;51.444;7.196;2023-04-19T03:45:14;9.80;1.00
1049;DHT22;513;51.444;7.196;2023-04-19T03:47:41;9.80;1.00
1049;DHT22;513;51.444;7.196;2023-04-19T03:50:08;9.80;1.00
1049;DHT22;513;51.444;7.196;2023-04-19T03:52:35;9.70;1.00
1049;DHT22;513;51.444;7.196;2023-04-19T03:55:02;9.70;1.00
1049;DHT22;513;51.444;7.196;2023-04-19T03:57:31;9.70;1.00
1049;DHT22;513;51.444;7.196;2023-04-19T03:59:58;9.70;1.00
1049;DHT22;513;51.444;7.196;2023-04-19T04:02:25;9.70;1.00
1049;DHT22;513;51.444;7.196;2023-04-19T04:04:52;9.70;1.00
1049;DHT22;513;51.444;7.196;2023-04-19T04:07:19;9.70;1.00
1049;DHT22;513;51.444;7.196;2023-04-19T04:09:47;9.70;99.90
1049;DHT22;513;51.444;7.196;2023-04-19T04:12:14;9.50;99.90
1049;DHT22;513;51.444;7.196;2023-04-19T04:14:42;9.50;99.90
1049;DHT22;513;51.444;7.196;2023-04-19T04:17:09;9.50;93.60
1049;DHT22;513;51.444;7.196;2023-04-19T04:19:35;9.40;1.00
1049;DHT22;513;51.444;7.196;2023-04-19T04:22:03;9.40;99.90
1049;DHT22;513;51.444;7.196;2023-04-19T04:24:30;9.30;99.90
1049;DHT22;513;51.444;7.196;2023-04-19T04:26:57;9.30;99.90
1049;DHT22;513;51.444;7.196;2023-04-19T04:29:25;9.20;99.90
1049;DHT22;513;51.444;7.196;2023-04-19T04:31:53;9.20;99.90
1049;DHT22;513;51.444;7.196;2023-04-19T04:34:21;9.20;99.90
1049;DHT22;513;51.444;7.196;2023-04-19T04:36:47;9.10;99.90
1049;DHT22;513;51.444;7.196;2023-04-19T04:39:15;9.00;99.90
1049;DHT22;513;51.444;7.196;2023-04-19T04:41:42;8.90;99.90
1049;DHT22;513;51.444;7.196;2023-04-19T04:44:09;8.90;1.00
1049;DHT22;513;51.444;7.196;2023-04-19T04:46:36;8.90;1.00
1049;DHT22;513;51.444;7.196;2023-04-19T04:49:04;8.90;99.90
1049;DHT22;513;51.444;7.196;2023-04-19T04:51:31;8.90;99.90
1049;DHT22;513;51.444;7.196;2023-04-19T04:53:58;8.80;99.90
1049;DHT22;513;51.444;7.196;2023-04-19T04:56:25;8.80;99.90
1049;DHT22;513;51.444;7.196;2023-04-19T04:58:51;8.70;99.90
1049;DHT22;513;51.444;7.196;2023-04-19T05:01:18;8.70;28.90
1049;DHT22;513;51.444;7.196;2023-04-19T05:03:45;8.70;1.00
1049;DHT22;513;51.444;7.196;2023-04-19T05:06:13;8.70;1.00
1049;DHT22;513;51.444;7.196;2023-04-19T05:08:40;8.70;18.70
1049;DHT22;513;51.444;7.196;2023-04-19T05:11:07;8.60;20.30
1049;DHT22;513;51.444;7.196;2023-04-19T05:13:33;8.70;1.00
1049;DHT22;513;51.444;7.196;2023-04-19T05:16:00;8.70;1.00
1049;DHT22;513;51.444;7.196;2023-04-19T05:18:27;8.60;1.00
1049;DHT22;513;51.444;7.196;2023-04-19T05:20:54;8.60;67.60
1049;DHT22;513;51.444;7.196;2023-04-19T05:23:23;8.60;99.90
1049;DHT22;513;51.444;7.196;2023-04-19T05:25:50;8.60;99.90
1049;DHT22;513;51.444;7.196;2023-04-19T05:28:16;8.60;99.90
1049;DHT22;513;51.444;7.196;2023-04-19T05:30:43;8.60;1.00
1049;DHT22;513;51.444;7.196;2023-04-19T05:33:10;8.60;99.90
1049;DHT22;513;51.444;7.196;2023-04-19T05:35:36;8.70;1.00
1049;DHT22;513;51.444;7.196;2023-04-19T05:38:03;8.70;1.00
1049;DHT22;513;51.444;7.196;2023-04-19T05:40:31;8.80;99.90
1049;DHT22;513;51.444;7.196;2023-04-19T05:42:59;8.80;99.90
1049;DHT22;513;51.444;7.196;2023-04-19T05:45:26;8.90;99.90
1049;DHT22;513;51.444;7.196;2023-04-19T05:47:53;8.80;23.60
1049;DHT22;513;51.444;7.196;2023-04-19T05:50:19;8.70;99.90
1049;DHT22;513;51.444;7.196;2023-04-19T05:52:46;8.70;99.90
1049;DHT22;513;51.444;7.196;2023-04-19T05:55:13;8.70;99.90
1049;DHT22;513;51.444;7.196;2023-04-19T05:57:41;8.60;99.90
1049;DHT22;513;51.444;7.196;2023-04-19T06:00:08;8.60;96.90
1049;DHT22;513;51.444;7.196;2023-04-19T06:02:36;8.50;58.90
1049;DHT22;513;51.444;7.196;2023-04-19T06:05:03;8.60;1.00
1049;DHT22;513;51.444;7.196;2023-04-19T06:07:29;8.60;1.00
1049;DHT22;513;51.444;7.196;2023-04-19T06:09:56;8.60;1.00
1049;DHT22;513;51.444;7.196;2023-04-19T06:12:23;8.60;1.00
1049;DHT22;513;51.444;7.196;2023-04-19T06:14:51;8.50;1.00
1049;DHT22;513;51.444;7.196;2023-04-19T06:17:17;8.50;99.90
1049;DHT22;513;51.444;7.196;2023-04-19T06:19:47;8.50;99.90
1049;DHT22;513;51.444;7.196;2023-04-19T06:22:14;8.50;99.90
1049;DHT22;513;51.444;7.196;2023-04-19T06:24:42;8.50;95.90
1049;DHT22;513;51.444;7.196;2023-04-19T06:27:09;8.60;54.50
1049;DHT22;513;51.444;7.196;2023-04-19T06:29:36;8.70;20.40
1049;DHT22;513;51.444;7.196;2023-04-19T06:32:04;8.80;1.00
1049;DHT22;513;51.444;7.196;2023-04-19T06:34:31;8.80;1.00
1049;DHT22;513;51.444;7.196;2023-04-19T06:36:57;8.80;1.00
1049;DHT22;513;51.444;7.196;2023-04-19T06:39:24;8.90;1.00
1049;DHT22;513;51.444;7.196;2023-04-19T06:41:51;9.00;99.90
1049;DHT22;513;51.444;7.196;2023-04-19T06:44:18;8.90;99.90
1049;DHT22;513;51.444;7.196;2023-04-19T06:46:44;8.90;99.90
1049;DHT22;513;51.444;7.196;2023-04-19T06:49:12;9.10;99.90
1049;DHT22;513;51.444;7.196;2023-04-19T06:51:39;9.10;99.90
1049;DHT22;513;51.444;7.196;2023-04-19T06:54:06;9.20;99.90
1049;DHT22;513;51.444;7.196;2023-04-19T06:56:40;9.30;99.90
1049;DHT22;513;51.444;7.196;2023-04-19T06:59:10;9.20;99.90
1049;DHT22;513;51.444;7.196;2023-04-19T07:01:37;9.20;99.90
1049;DHT22;513;51.444;7.196;2023-04-19T07:04:03;9.10;99.90
1049;DHT22;513;51.444;7.196;2023-04-19T07:06:31;9.10;99.90
1049;DHT22;513;51.444;7.196;2023-04-19T07:08:58;9.00;99.90
1049;DHT22;513;51.444;7.196;2023-04-19T07:11:25;9.20;99.90
1049;DHT22;513;51.444;7.196;2023-04-19T07:13:52;9.20;99.90
1049;DHT22;513;51.444;7.196;2023-04-19T07:16:19;9.20;99.90
1049;DHT22;513;51.444;7.196;2023-04-19T07:18:46;9.30;99.90
1049;DHT22;513;51.444;7.196;2023-04-19T07:21:12;9.30;99.90
1049;DHT22;513;51.444;7.196;2023-04-19T07:23:40;9.40;99.90
1049;DHT22;513;51.444;7.196;2023-04-19T07:26:07;9.30;99.90
1049;DHT22;513;51.444;7.196;2023-04-19T07:28:34;9.50;99.90
1049;DHT22;513;51.444;7.196;2023-04-19T07:31:01;9.60;99.90
1049;DHT22;513;51.444;7.196;2023-04-19T07:33:28;9.60;99.90
1049;DHT22;513;51.444;7.196;2023-04-19T07:35:54;9.70;99.90
1049;DHT22;513;51.444;7.196;2023-04-19T07:38:21;9.60;99.90
1049;DHT22;513;51.444;7.196;2023-04-19T07:40:50;9.60;99.90
1049;DHT22;513;51.444;7.196;2023-04-19T07:43:17;9.60;99.90
1049;DHT22;513;51.444;7.196;2023-04-19T07:45:43;9.60;99.90
1049;DHT22;513;51.444;7.196;2023-04-19T07:48:10;9.70;99.90
1049;DHT22;513;51.444;7.196;2023-04-19T07:50:36;9.80;99.90
1049;DHT22;513;51.444;7.196;2023-04-19T07:53:03;9.70;99.90
1049;DHT22;513;51.444;7.196;2023-04-19T07:55:30;9.70;99.90
1049;DHT22;513;51.444;7.196;2023-04-19T07:57:58;9.80;99.90
1049;DHT22;513;51.444;7.196;2023-04-19T08:00:24;9.90;99.90
1049;DHT22;513;51.444;7.196;2023-04-19T08:02:51;10.20;99.90
1049;DHT22;513;51.444;7.196;2023-04-19T08:05:18;10.20;99.90
1049;DHT22;513;51.444;7.196;2023-04-19T08:07:45;10.10;99.90
1049;DHT22;513;51.444;7.196;2023-04-19T08:10:11;9.80;99.90
1049;DHT22;513;51.444;7.196;2023-04-19T08:12:38;9.80;99.90
1049;DHT22;513;51.444;7.196;2023-04-19T08:15:07;9.80;99.90
1049;DHT22;513;51.444;7.196;2023-04-19T08:17:34;9.70;99.90
1049;DHT22;513;51.444;7.196;2023-04-19T08:20:01;9.80;99.90
1049;DHT22;513;51.444;7.196;2023-04-19T08:22:28;9.80;99.90
1049;DHT22;513;51.444;7.196;2023-04-19T08:24:55;10.00;99.90
1049;DHT22;513;51.444;7.196;2023-04-19T08:27:21;10.00;99.90
1049;DHT22;513;51.444;7.196;2023-04-19T08:29:49;9.90;99.90
1049;DHT22;513;51.444;7.196;2023-04-19T08:32:17;10.10;99.90
1049;DHT22;513;51.444;7.196;2023-04-19T08:34:44;10.30;99.90
1049;DHT22;513;51.444;7.196;2023-04-19T08:37:11;10.30;99.90
1049;DHT22;513;51.444;7.196;2023-04-19T08:39:38;10.20;99.90
1049;DHT22;513;51.444;7.196;2023-04-19T08:42:06;10.30;99.90
1049;DHT22;513;51.444;7.196;2023-04-19T08:44:34;10.20;99.90
1049;DHT22;513;51.444;7.196;2023-04-19T08:47:02;10.00;99.90
1049;DHT22;513;51.444;7.196;2023-04-19T08:49:30;10.00;99.90
1049;DHT22;513;51.444;7.196;2023-04-19T08:52:00;9.90;99.90
1049;DHT22;513;51.444;7.196;2023-04-19T08:54:28;10.20;99.90
1049;DHT22;513;51.444;7.196;2023-04-19T08:56:57;10.30;99.90
1049;DHT22;513;51.444;7.196;2023-04-19T08:59:24;10.30;99.90
1049;DHT22;513;51.444;7.196;2023-04-19T09:01:51;10.40;99.90
1049;DHT22;513;51.444;7.196;2023-04-19T09:04:18;10.40;99.90
1049;DHT22;513;51.444;7.196;2023-04-19T09:06:46;10.60;99.90
1049;DHT22;513;51.444;7.196;2023-04-19T09:09:15;10.30;99.90
1049;DHT22;513;51.444;7.196;2023-04-19T09:11:41;10.40;99.90
1049;DHT22;513;51.444;7.196;2023-04-19T09:14:09;10.40;99.90
1049;DHT22;513;51.444;7.196;2023-04-19T09:16:36;10.60;99.90
1049;DHT22;513;51.444;7.196;2023-04-19T09:19:04;10.40;99.90
1049;DHT22;513;51.444;7.196;2023-04-19T09:21:32;10.70;99.90
1049;DHT22;513;51.444;7.196;2023-04-19T09:24:01;10.80;99.90
1049;DHT22;513;51.444;7.196;2023-04-19T09:26:28;10.60;99.90
1049;DHT22;513;51.444;7.196;2023-04-19T09:28:55;10.60;99.90
1049;DHT22;513;51.444;7.196;2023-04-19T09:31:22;10.60;99.90
1049;DHT22;513;51.444;7.196;2023-04-19T09:33:50;10.70;99.90
1049;DHT22;513;51.444;7.196;2023-04-19T09:36:28;10.70;99.90
1049;DHT22;513;51.444;7.196;2023-04-19T09:38:56;11.00;99.90
1049;DHT22;513;51.444;7.196;2023-04-19T09:41:25;11.00;99.90
1049;DHT22;513;51.444;7.196;2023-04-19T09:43:52;11.20;99.90
1049;DHT22;513;51.444;7.196;2023-04-19T09:46:32;11.20;99.90
1049;DHT22;513;51.444;7.196;2023-04-19T09:49:15;11.10;99.90
1049;DHT22;513;51.444;7.196;2023-04-19T09:51:45;10.70;99.90
1049;DHT22;513;51.444;7.196;2023-04-19T09:54:13;10.90;99.90
1049;DHT22;513;51.444;7.196;2023-04-19T09:56:41;11.00;99.90
1049;DHT22;513;51.444;7.196;2023-04-19T09:59:09;11.00;99.90
1049;DHT22;513;51.444;7.196;2023-04-19T10:01:38;10.90;99.90
1049;DHT22;513;51.444;7.196;2023-04-19T10:04:06;11.00;99.90
1049;DHT22;513;51.444;7.196;2023-04-19T10:06:34;11.20;99.90
1049;DHT22;513;51.444;7.196;2023-04-19T10:09:03;11.10;99.90
1049;DHT22;513;51.444;7.196;2023-04-19T10:11:31;11.20;99.90
1049;DHT22;513;51.444;7.196;2023-04-19T10:14:03;11.00;99.90
1049;DHT22;513;51.444;7.196;2023-04-19T10:16:31;11.00;99.90
1049;DHT22;513;51.444;7.196;2023-04-19T10:18:58;11.00;99.90
1049;DHT22;513;51.444;7.196;2023-04-19T10:21:27;11.30;99.90
1049;DHT22;513;51.444;7.196;2023-04-19T10:23:54;11.40;99.90
1049;DHT22;513;51.444;7.196;2023-04-19T10:26:21;11.20;99.90
1049;DHT22;513;51.444;7.196;2023-04-19T10:28:49;11.20;99.90
1049;DHT22;513;51.444;7.196;2023-04-19T10:31:19;11.20;99.90
1049;DHT22;513;51.444;7.196;2023-04-19T10:33:48;11.30;99.90
1049;DHT22;513;51.444;7.196;2023-04-19T10:36:16;11.30;99.90
1049;DHT22;513;51.444;7.196;2023-04-19T10:38:44;11.40;99.90
1049;DHT22;513;51.444;7.196;2023-04-19T10:41:12;11.50;99.90
1049;DHT22;513;51.444;7.196;2023-04-19T10:43:40;11.40;99.90
1049;DHT22;513;51.444;7.196;2023-04-19T10:46:08;11.20;99.90
1049;DHT22;513;51.444;7.196;2023-04-19T10:48:39;11.00;99.90
1049;DHT22;513;51.444;7.196;2023-04-19T10:51:12;11.20;99.90
1049;DHT22;513;51.444;7.196;2023-04-19T10:53:52;11.70;99.90
1049;DHT22;513;51.444;7.196;2023-04-19T10:56:20;11.80;99.90
1049;DHT22;513;51.444;7.196;2023-04-19T10:59:11;11.70;99.90
1049;DHT22;513;51.444;7.196;2023-04-19T11:01:46;11.90;99.90
1049;DHT22;513;51.444;7.196;2023-04-19T11:04:16;11.70;99.90
1049;DHT22;513;51.444;7.196;2023-04-19T11:06:57;11.70;99.90
1049;DHT22;513;51.444;7.196;2023-04-19T11:09:27;11.80;99.90
1049;DHT22;513;51.444;7.196;2023-04-19T11:11:58;12.00;99.90
1049;DHT22;513;51.444;7.196;2023-04-19T11:14:29;12.10;99.90
1049;DHT22;513;51.444;7.196;2023-04-19T11:16:56;12.20;99.90
1049;DHT22;513;51.444;7.196;2023-04-19T11:19:24;12.00;99.90
1049;DHT22;513;51.444;7.196;2023-04-19T11:21:51;12.10;99.90
1049;DHT22;513;51.444;7.196;2023-04-19T11:24:17;12.10;99.90
1049;DHT22;513;51.444;7.196;2023-04-19T11:26:45;11.90;99.90
1049;DHT22;513;51.444;7.196;2023-04-19T11:29:11;12.00;99.90
1049;DHT22;513;51.444;7.196;2023-04-19T11:31:38;12.00;99.90
1049;DHT22;513;51.444;7.196;2023-04-19T11:34:05;12.20;99.90
1049;DHT22;513;51.444;7.196;2023-04-19T11:36:33;12.20;99.90
1049;DHT22;513;51.444;7.196;2023-04-19T11:39:03;12.60;99.90
1049;DHT22;513;51.444;7.196;2023-04-19T11:41:36;12.60;99.90
1049;DHT22;513;51.444;7.196;2023-04-19T11:44:05;12.60;99.90
1049;DHT22;513;51.444;7.196;2023-04-19T11:46:37;12.70;99.90
1049;DHT22;513;51.444;7.196;2023-04-19T11:49:04;12.90;99.90
1049;DHT22;513;51.444;7.196;2023-04-19T11:51:33;12.90;99.90
1049;DHT22;513;51.444;7.196;2023-04-19T11:53:59;12.70;99.90
1049;DHT22;513;51.444;7.196;2023-04-19T11:56:26;12.80;99.90
1049;DHT22;513;51.444;7.196;2023-04-19T11:58:56;12.80;99.90
1049;DHT22;513;51.444;7.196;2023-04-19T12:01:23;12.80;99.90
1049;DHT22;513;51.444;7.196;2023-04-19T12:03:52;12.70;99.90
1049;DHT22;513;51.444;7.196;2023-04-19T12:06:24;12.70;99.90
1049;DHT22;513;51.444;7.196;2023-04-19T12:08:54;12.80;99.90
1049;DHT22;513;51.444;7.196;2023-04-19T12:11:22;13.00;99.90
1049;DHT22;513;51.444;7.196;2023-04-19T12:14:07;13.10;99.90
1049;DHT22;513;51.444;7.196;2023-04-19T12:16:33;13.10;99.90
1049;DHT22;513;51.444;7.196;2023-04-19T12:19:10;13.00;99.90
1049;DHT22;513;51.444;7.196;2023-04-19T12:21:38;13.00;99.90
1049;DHT22;513;51.444;7.196;2023-04-19T12:24:06;12.80;99.90
1049;DHT22;513;51.444;7.196;2023-04-19T12:26:33;13.00;99.90
1049;DHT22;513;51.444;7.196;2023-04-19T12:29:01;13.20;99.90
1049;DHT22;513;51.444;7.196;2023-04-19T12:31:30;13.10;99.90
1049;DHT22;513;51.444;7.196;2023-04-19T12:33:57;13.40;99.90
1049;DHT22;513;51.444;7.196;2023-04-19T12:36:24;13.40;99.90
1049;DHT22;513;51.444;7.196;2023-04-19T12:38:51;13.60;99.90
1049;DHT22;513;51.444;7.196;2023-04-19T12:41:19;13.40;99.90
1049;DHT22;513;51.444;7.196;2023-04-19T12:43:45;13.20;99.90
1049;DHT22;513;51.444;7.196;2023-04-19T12:46:12;13.20;99.90
1049;DHT22;513;51.444;7.196;2023-04-19T12:48:39;13.00;99.90
1049;DHT22;513;51.444;7.196;2023-04-19T12:51:05;12.90;99.90
1049;DHT22;513;51.444;7.196;2023-04-19T12:53:32;13.20;99.90
1049;DHT22;513;51.444;7.196;2023-04-19T12:55:58;12.90;99.90
1049;DHT22;513;51.444;7.196;2023-04-19T12:58:26;13.20;99.90
1049;DHT22;513;51.444;7.196;2023-04-19T13:00:53;13.10;99.90
1049;DHT22;513;51.444;7.196;2023-04-19T13:03:20;13.10;99.90
1049;DHT22;513;51.444;7.196;2023-04-19T13:05:46;13.30;99.90
1049;DHT22;513;51.444;7.196;2023-04-19T13:08:13;13.30;99.90
1049;DHT22;513;51.444;7.196;2023-04-19T13:10:40;13.30;99.90
1049;DHT22;513;51.444;7.196;2023-04-19T13:13:06;13.30;99.90
1049;DHT22;513;51.444;7.196;2023-04-19T13:15:34;13.40;99.90
1049;DHT22;513;51.444;7.196;2023-04-19T13:18:01;13.30;99.90
1049;DHT22;513;51.444;7.196;2023-04-19T13:20:28;13.30;99.90
1049;DHT22;513;51.444;7.196;2023-04-19T13:22:54;13.40;99.90
1049;DHT22;513;51.444;7.196;2023-04-19T13:25:21;13.60;99.90
1049;DHT22;513;51.444;7.196;2023-04-19T13:27:48;13.60;99.90
1049;DHT22;513;51.444;7.196;2023-04-19T13:30:16;13.80;99.90
1049;DHT22;513;51.444;7.196;2023-04-19T13:32:44;13.80;99.90
1049;DHT22;513;51.444;7.196;2023-04-19T13:35:10;13.70;99.90
1049;DHT22;513;51.444;7.196;2023-04-19T13:37:37;13.80;99.90
1049;DHT22;513;51.444;7.196;2023-04-19T13:40:05;13.90;99.90
1049;DHT22;513;51.444;7.196;2023-04-19T13:42:32;14.00;99.90
1049;DHT22;513;51.444;7.196;2023-04-19T13:44:59;14.10;99.90
1049;DHT22;513;51.444;7.196;2023-04-19T13:47:26;13.90;99.90
1049;DHT22;513;51.444;7.196;2023-04-19T13:49:53;14.00;99.90
1049;DHT22;513;51.444;7.196;2023-04-19T13:52:20;13.70;99.90
1049;DHT22;513;51.444;7.196;2023-04-19T13:54:47;13.90;99.90
1049;DHT22;513;51.444;7.196;2023-04-19T13:57:14;14.10;99.90
1049;DHT22;513;51.444;7.196;2023-04-19T13:59:41;13.80;99.90
1049;DHT22;513;51.444;7.196;2023-04-19T14:02:07;14.00;99.90
1049;DHT22;513;51.444;7.196;2023-04-19T14:04:34;13.90;99.90
1049;DHT22;513;51.444;7.196;2023-04-19T14:07:02;13.80;99.90
1049;DHT22;513;51.444;7.196;2023-04-19T14:09:29;13.90;99.90
1049;DHT22;513;51.444;7.196;2023-04-19T14:11:56;13.90;99.90
1049;DHT22;513;51.444;7.196;2023-04-19T14:14:22;13.80;99.90
1049;DHT22;513;51.444;7.196;2023-04-19T14:16:49;13.60;99.90
1049;DHT22;513;51.444;7.196;2023-04-19T14:19:15;13.60;99.90
1049;DHT22;513;51.444;7.196;2023-04-19T14:21:42;13.60;99.90
1049;DHT22;513;51.444;7.196;2023-04-19T14:24:10;13.60;99.90
1049;DHT22;513;51.444;7.196;2023-04-19T14:26:37;13.50;99.90
1049;DHT22;513;51.444;7.196;2023-04-19T14:29:03;13.70;99.90
1049;DHT22;513;51.444;7.196;2023-04-19T14:31:31;13.60;99.90
1049;DHT22;513;51.444;7.196;2023-04-19T14:33:58;13.60;99.90
1049;DHT22;513;51.444;7.196;2023-04-19T14:36:25;13.60;99.90
1049;DHT22;513;51.444;7.196;2023-04-19T14:38:52;13.40;99.90
1049;DHT22;513;51.444;7.196;2023-04-19T14:41:20;13.40;99.90
1049;DHT22;513;51.444;7.196;2023-04-19T14:43:47;13.60;99.90
1049;DHT22;513;51.444;7.196;2023-04-19T14:46:13;13.70;99.90
1049;DHT22;513;51.444;7.196;2023-04-19T14:48:40;13.70;99.90
1049;DHT22;513;51.444;7.196;2023-04-19T14:51:07;13.70;99.90
1049;DHT22;513;51.444;7.196;2023-04-19T14:53:33;13.70;99.90
1049;DHT22;513;51.444;7.196;2023-04-19T14:56:02;13.80;99.90
1049;DHT22;513;51.444;7.196;2023-04-19T14:58:30;13.80;99.90
1049;DHT22;513;51.444;7.196;2023-04-19T15:00:57;13.70;99.90
1049;DHT22;513;51.444;7.196;2023-04-19T15:03:23;13.60;99.90
1049;DHT22;513;51.444;7.196;2023-04-19T15:05:50;13.60;99.90
1049;DHT22;513;51.444;7.196;2023-04-19T15:08:17;13.50;99.90
1049;DHT22;513;51.444;7.196;2023-04-19T15:10:43;13.70;99.90
1049;DHT22;513;51.444;7.196;2023-04-19T15:13:10;13.60;99.90
1049;DHT22;513;51.444;7.196;2023-04-19T15:15:38;13.50;99.90
1049;DHT22;513;51.444;7.196;2023-04-19T15:18:05;13.60;99.90
1049;DHT22;513;51.444;7.196;2023-04-19T15:20:31;13.70;99.90
1049;DHT22;513;51.444;7.196;2023-04-19T15:22:58;13.50;99.90
1049;DHT22;513;51.444;7.196;2023-04-19T15:25:24;13.60;99.90
1049;DHT22;513;51.444;7.196;2023-04-19T15:27:51;13.60;99.90
1049;DHT22;513;51.444;7.196;2023-04-19T15:30:18;13.60;99.90
1049;DHT22;513;51.444;7.196;2023-04-19T15:32:46;13.60;99.90
1049;DHT22;513;51.444;7.196;2023-04-19T15:35:13;13.70;99.90
1049;DHT22;513;51.444;7.196;2023-04-19T15:37:39;13.80;99.90
1049;DHT22;513;51.444;7.196;2023-04-19T15:40:09;13.90;99.90
1049;DHT22;513;51.444;7.196;2023-04-19T15:42:36;13.90;99.90
1049;DHT22;513;51.444;7.196;2023-04-19T15:45:04;13.50;99.90
1049;DHT22;513;51.444;7.196;2023-04-19T15:47:31;13.30;99.90
1049;DHT22;513;51.444;7.196;2023-04-19T15:49:59;13.20;99.90
1049;DHT22;513;51.444;7.196;2023-04-19T15:52:25;13.30;99.90
1049;DHT22;513;51.444;7.196;2023-04-19T15:54:52;13.50;99.90
1049;DHT22;513;51.444;7.196;2023-04-19T15:57:19;13.70;99.90
1049;DHT22;513;51.444;7.196;2023-04-19T15:59:45;13.80;99.90
1049;DHT22;513;51.444;7.196;2023-04-19T16:02:12;13.90;99.90
1049;DHT22;513;51.444;7.196;2023-04-19T16:04:38;13.70;99.90
1049;DHT22;513;51.444;7.196;2023-04-19T16:07:06;13.70;99.90
1049;DHT22;513;51.444;7.196;2023-04-19T16:09:33;13.80;99.90
1049;DHT22;513;51.444;7.196;2023-04-19T16:12:00;13.70;99.90
1049;DHT22;513;51.444;7.196;2023-04-19T16:14:26;13.80;99.90
1049;DHT22;513;51.444;7.196;2023-04-19T16:16:53;13.70;99.90
1049;DHT22;513;51.444;7.196;2023-04-19T16:19:20;13.60;99.90
1049;DHT22;513;51.444;7.196;2023-04-19T16:21:46;13.40;99.90
1049;DHT22;513;51.444;7.196;2023-04-19T16:24:14;13.40;99.90
1049;DHT22;513;51.444;7.196;2023-04-19T16:26:41;13.30;99.90